Sagar Kanya — VTJR — position and weather

sailwx.info

Track history (hours):
 
Tides and Currents Weather Stations Pressure Air Temp Water Temp Dewpoint Dewpoint Depression Visibility Wind Speed Wind Dir Waves Ship Positions

Oceanographic research ship Sagar Kanya (India)

Detailed information on ship capabilities available from University of Delaware's Ocean Information Center.

Last reported at 2017-Apr-28 12:10 UTC. Time now 2017-Jun-26 17:06 UTC.
Position N 15°24' E 073°48'.
Warning: this ship's position is 59 days out of date.

Type: Other ship. MMSI: 419320000.

Wind from 320 at 12 knots

Barometer 1008.5 mb
Air temperature 29.6 ° C

Date/timePositionNaut miles runAvg speedWind from/ knotsBaromVisibWave heightAir tempDewpointWater temp
2017-Apr-28 12:10N 15°24' E 073°48'0 0.0 320 / 121008.5 29.6
2017-Apr-28 06:10N 15°24' E 073°48'0 0.0 300 / 101012.6 29.6
2017-Apr-28 03:10N 15°24' E 073°48'0 0.0 140 / 21013.2 27.9
2017-Apr-28 00:10N 15°24' E 073°48'0 0.0 050 / 101011.9 27.2
2017-Apr-27 21:10N 15°24' E 073°48'0 0.0 040 / 101011.2 28.0
2017-Apr-27 18:10N 15°24' E 073°48'0 0.0 030 / 141011.8 28.7
2017-Apr-27 15:10N 15°24' E 073°48'0 0.0 010 / 161011.1 29.1
2017-Apr-27 09:10N 15°24' E 073°48'0 0.0 330 / 141009.4 29.3
2017-Apr-27 06:10N 15°24' E 073°48'0 0.0 340 / 121011.6 28.7
2017-Apr-27 03:10N 15°24' E 073°48'0 0.0 090 / 61012.3 27.4
2017-Apr-27 00:10N 15°24' E 073°48'0 0.0 050 / 121010.5 26.9
2017-Apr-26 21:10N 15°24' E 073°48'0 0.0 040 / 121010.0 27.6
2017-Apr-26 18:10N 15°24' E 073°48'0 0.0 040 / 141011.6 28.2
2017-Apr-26 15:10N 15°24' E 073°48'0 0.0 010 / 171010.8 28.7
2017-Apr-26 12:10N 15°24' E 073°48'0 0.0 350 / 171008.9 29.2
2017-Apr-26 09:10N 15°24' E 073°48'0 0.0 350 / 161009.7 29.0
2017-Apr-26 06:10N 15°24' E 073°48'0 0.0 350 / 121012.2 28.7
2017-Apr-26 03:10N 15°24' E 073°48'0 0.0 050 / 101012.6 27.4
2017-Apr-26 00:10N 15°24' E 073°48'0 0.0 060 / 121010.1 27.0
2017-Apr-25 21:10N 15°24' E 073°48'0 0.0 040 / 121009.5 27.5
2017-Apr-25 18:10N 15°24' E 073°48'0 0.0 070 / 101011.3 28.1
2017-Apr-25 12:10N 15°24' E 073°48'0 0.0 340 / 211008.8 29.6
2017-Apr-25 09:10N 15°24' E 073°48'0 0.0 340 / 161010.0 29.3
2017-Apr-24 03:10N 15°24' E 073°48'0 0.0 100 / 61012.4 27.9
2017-Apr-24 00:10N 15°24' E 073°48'0 0.0 070 / 101009.9 27.5
2017-Apr-23 21:10N 15°24' E 073°48'0 0.0 050 / 101009.5 27.8
2017-Apr-23 18:10N 15°24' E 073°48'0 0.0 060 / 81011.3 28.7
2017-Apr-23 15:10N 15°24' E 073°48'0 0.0 360 / 101010.5 29.3
2017-Apr-23 00:10N 15°24' E 073°48'0 0.0 130 / 41010.4 27.0
2017-Apr-22 21:10N 15°24' E 073°48'0 0.0 040 / 41010.3 28.8
2017-Apr-22 18:10N 15°24' E 073°48'0 0.0 320 / 81011.5 29.0
2017-Apr-22 15:10N 15°24' E 073°48'0 0.0 310 / 81011.1 29.4
2017-Apr-22 12:10N 15°24' E 073°48'0 0.0 280 / 81008.8 30.5
2017-Apr-22 08:40N 15°24' E 073°48'0 0.0 270 / 101010.4 30.2
2017-Apr-22 06:10N 15°24' E 073°48'0 0.0 280 / 61012.7 30.5
2017-Apr-22 03:10N 15°24' E 073°48'0 0.0 110 / 41012.9 28.4
2017-Apr-22 00:10N 15°24' E 073°48'0 0.0 120 / 41010.7 27.7
2017-Apr-21 21:10N 15°24' E 073°48'0 0.0 280 / 41010.3 28.7
2017-Apr-21 18:10N 15°24' E 073°48'0 0.0 250 / 21011.8 28.8
2017-Apr-21 15:10N 15°24' E 073°48'0 0.0 260 / 41011.4 29.2
2017-Apr-21 12:10N 15°24' E 073°48'0 0.0 280 / 81009.3 30.2
2017-Apr-21 09:10N 15°24' E 073°48'0 0.0 280 / 101009.8 30.7
2017-Apr-21 06:10N 15°24' E 073°48'0 0.0 260 / 61012.6 30.9
2017-Apr-21 03:10N 15°24' E 073°48'0 0.0 120 / 61012.3 28.9
2017-Apr-21 00:10N 15°24' E 073°48'0 0.0 270 / 41009.7 28.8
2017-Apr-20 21:10N 15°24' E 073°48'0 0.0 300 / 41009.6 28.8
2017-Apr-20 18:10N 15°24' E 073°48'0 0.0 340 / 41011.0 29.2
2017-Apr-20 15:10N 15°24' E 073°48'0 0.0 300 / 61010.4 29.4
2017-Apr-20 12:10N 15°24' E 073°48'0 0.0 300 / 61008.4 29.7
2017-Apr-20 09:10N 15°24' E 073°48'0 0.0 270 / 101009.1 29.6
2017-Apr-20 06:10N 15°24' E 073°48'0 0.0 250 / 81011.5 29.5
2017-Apr-20 02:40N 15°24' E 073°48'0 0.0 160 / 41011.2 29.9
2017-Apr-19 20:40N 15°24' E 073°48'0 0.0 290 / 41008.9 28.8
2017-Apr-19 18:10N 15°24' E 073°48'0 0.0 300 / 41010.3 29.1
2017-Apr-19 15:10N 15°24' E 073°48'0 0.0 320 / 41009.9 29.3
2017-Apr-19 12:10N 15°24' E 073°48'0 0.0 300 / 81008.3 29.6
2017-Apr-19 09:10N 15°24' E 073°48'0 0.0 280 / 101008.6 29.4
2017-Apr-19 06:10N 15°24' E 073°48'0 0.0 270 / 81011.5 30.2
2017-Apr-19 03:10N 15°24' E 073°48'0 0.0 280 / 21011.7 29.7
2017-Apr-19 00:10N 15°24' E 073°48'0 0.0 300 / 41009.3 28.8
2017-Apr-18 21:10N 15°24' E 073°48'0 0.0 290 / 61008.7 28.9
2017-Apr-18 18:10N 15°24' E 073°48'0 0.0 300 / 61010.4 29.4
2017-Apr-18 15:10N 15°24' E 073°48'0 0.0 310 / 61010.0 29.3
2017-Apr-18 12:10N 15°24' E 073°48'   300 / 101007.8 29.8
Track history (hours):
 
Tides and Currents Weather Stations Pressure Air Temp Water Temp Dewpoint Dewpoint Depression Visibility Wind Speed Wind Dir Waves Ship Positions

Oceanographic research ship Sagar Kanya (India)

Detailed information on ship capabilities available from University of Delaware's Ocean Information Center.

Last reported at 2017-Apr-28 12:10 UTC. Time now 2017-Jun-26 17:06 UTC.
Position N 15°24' E 073°48'.
Warning: this ship's position is 59 days out of date.

Type: Other ship. MMSI: 419320000.

Wind from 320 at 12 knots

Barometer 1008.5 mb
Air temperature 29.6 ° C

Date/timePositionNaut miles runAvg speedWind from/ knotsBaromVisibWave heightAir tempDewpointWater temp
2017-Apr-28 12:10N 15°24' E 073°48'0 0.0 320 / 121008.5 29.6
2017-Apr-28 06:10N 15°24' E 073°48'0 0.0 300 / 101012.6 29.6
2017-Apr-28 03:10N 15°24' E 073°48'0 0.0 140 / 21013.2 27.9
2017-Apr-28 00:10N 15°24' E 073°48'0 0.0 050 / 101011.9 27.2
2017-Apr-27 21:10N 15°24' E 073°48'0 0.0 040 / 101011.2 28.0
2017-Apr-27 18:10N 15°24' E 073°48'0 0.0 030 / 141011.8 28.7
2017-Apr-27 15:10N 15°24' E 073°48'0 0.0 010 / 161011.1 29.1
2017-Apr-27 09:10N 15°24' E 073°48'0 0.0 330 / 141009.4 29.3
2017-Apr-27 06:10N 15°24' E 073°48'0 0.0 340 / 121011.6 28.7
2017-Apr-27 03:10N 15°24' E 073°48'0 0.0 090 / 61012.3 27.4
2017-Apr-27 00:10N 15°24' E 073°48'0 0.0 050 / 121010.5 26.9
2017-Apr-26 21:10N 15°24' E 073°48'0 0.0 040 / 121010.0 27.6
2017-Apr-26 18:10N 15°24' E 073°48'0 0.0 040 / 141011.6 28.2
2017-Apr-26 15:10N 15°24' E 073°48'0 0.0 010 / 171010.8 28.7
2017-Apr-26 12:10N 15°24' E 073°48'0 0.0 350 / 171008.9 29.2
2017-Apr-26 09:10N 15°24' E 073°48'0 0.0 350 / 161009.7 29.0
2017-Apr-26 06:10N 15°24' E 073°48'0 0.0 350 / 121012.2 28.7
2017-Apr-26 03:10N 15°24' E 073°48'0 0.0 050 / 101012.6 27.4
2017-Apr-26 00:10N 15°24' E 073°48'0 0.0 060 / 121010.1 27.0
2017-Apr-25 21:10N 15°24' E 073°48'0 0.0 040 / 121009.5 27.5
2017-Apr-25 18:10N 15°24' E 073°48'0 0.0 070 / 101011.3 28.1
2017-Apr-25 12:10N 15°24' E 073°48'0 0.0 340 / 211008.8 29.6
2017-Apr-25 09:10N 15°24' E 073°48'0 0.0 340 / 161010.0 29.3
2017-Apr-24 03:10N 15°24' E 073°48'0 0.0 100 / 61012.4 27.9
2017-Apr-24 00:10N 15°24' E 073°48'0 0.0 070 / 101009.9 27.5
2017-Apr-23 21:10N 15°24' E 073°48'0 0.0 050 / 101009.5 27.8
2017-Apr-23 18:10N 15°24' E 073°48'0 0.0 060 / 81011.3 28.7
2017-Apr-23 15:10N 15°24' E 073°48'0 0.0 360 / 101010.5 29.3
2017-Apr-23 00:10N 15°24' E 073°48'0 0.0 130 / 41010.4 27.0
2017-Apr-22 21:10N 15°24' E 073°48'0 0.0 040 / 41010.3 28.8
2017-Apr-22 18:10N 15°24' E 073°48'0 0.0 320 / 81011.5 29.0
2017-Apr-22 15:10N 15°24' E 073°48'0 0.0 310 / 81011.1 29.4
2017-Apr-22 12:10N 15°24' E 073°48'0 0.0 280 / 81008.8 30.5
2017-Apr-22 08:40N 15°24' E 073°48'0 0.0 270 / 101010.4 30.2
2017-Apr-22 06:10N 15°24' E 073°48'0 0.0 280 / 61012.7 30.5
2017-Apr-22 03:10N 15°24' E 073°48'0 0.0 110 / 41012.9 28.4
2017-Apr-22 00:10N 15°24' E 073°48'0 0.0 120 / 41010.7 27.7
2017-Apr-21 21:10N 15°24' E 073°48'0 0.0 280 / 41010.3 28.7
2017-Apr-21 18:10N 15°24' E 073°48'0 0.0 250 / 21011.8 28.8
2017-Apr-21 15:10N 15°24' E 073°48'0 0.0 260 / 41011.4 29.2
2017-Apr-21 12:10N 15°24' E 073°48'0 0.0 280 / 81009.3 30.2
2017-Apr-21 09:10N 15°24' E 073°48'0 0.0 280 / 101009.8 30.7
2017-Apr-21 06:10N 15°24' E 073°48'0 0.0 260 / 61012.6 30.9
2017-Apr-21 03:10N 15°24' E 073°48'0 0.0 120 / 61012.3 28.9
2017-Apr-21 00:10N 15°24' E 073°48'0 0.0 270 / 41009.7 28.8
2017-Apr-20 21:10N 15°24' E 073°48'0 0.0 300 / 41009.6 28.8
2017-Apr-20 18:10N 15°24' E 073°48'0 0.0 340 / 41011.0 29.2
2017-Apr-20 15:10N 15°24' E 073°48'0 0.0 300 / 61010.4 29.4
2017-Apr-20 12:10N 15°24' E 073°48'0 0.0 300 / 61008.4 29.7
2017-Apr-20 09:10N 15°24' E 073°48'0 0.0 270 / 101009.1 29.6
2017-Apr-20 06:10N 15°24' E 073°48'0 0.0 250 / 81011.5 29.5
2017-Apr-20 02:40N 15°24' E 073°48'0 0.0 160 / 41011.2 29.9
2017-Apr-19 20:40N 15°24' E 073°48'0 0.0 290 / 41008.9 28.8
2017-Apr-19 18:10N 15°24' E 073°48'0 0.0 300 / 41010.3 29.1
2017-Apr-19 15:10N 15°24' E 073°48'0 0.0 320 / 41009.9 29.3
2017-Apr-19 12:10N 15°24' E 073°48'0 0.0 300 / 81008.3 29.6
2017-Apr-19 09:10N 15°24' E 073°48'0 0.0 280 / 101008.6 29.4
2017-Apr-19 06:10N 15°24' E 073°48'0 0.0 270 / 81011.5 30.2
2017-Apr-19 03:10N 15°24' E 073°48'0 0.0 280 / 21011.7 29.7
2017-Apr-19 00:10N 15°24' E 073°48'0 0.0 300 / 41009.3 28.8
2017-Apr-18 21:10N 15°24' E 073°48'0 0.0 290 / 61008.7 28.9
2017-Apr-18 18:10N 15°24' E 073°48'0 0.0 300 / 61010.4 29.4
2017-Apr-18 15:10N 15°24' E 073°48'0 0.0 310 / 61010.0 29.3
2017-Apr-18 12:10N 15°24' E 073°48'   300 / 101007.8 29.8

Dump ship's entire track history